Time;durP1;ratioP1;P1;durP2;ratioP2;P2;SDS_P1;SDS_P2;PMS_P1;PMS_P2;Temp;Humidity;BMP_temperature;BMP_pressure;BME280_temperature;BME280_humidity;BME280_pressure;Samples;Min_cycle;Max_cycle;Signal;HPM_P1;HPM_P2
2022/09/23 00:01:45;;;;;;;10.90;5.53;;;;;;;9.83;83.79;101715.09;5055477;28;20036;-46
2022/09/23 00:04:10;;;;;;;8.13;5.25;;;;;;;9.78;82.66;101715.34;5054796;28;20060;-48
2022/09/23 00:06:36;;;;;;;8.32;5.15;;;;;;;9.78;83.60;101715.34;5045384;28;20076;-46
2022/09/23 00:09:01;;;;;;;7.88;4.93;;;;;;;9.78;83.84;101718.00;5055399;28;20010;-46
2022/09/23 00:11:27;;;;;;;11.35;5.75;;;;;;;9.77;83.94;101720.75;5054798;28;20044;-47
2022/09/23 00:13:56;;;;;;;9.27;5.15;;;;;;;9.76;83.88;101719.06;5055642;28;20072;-47
2022/09/23 00:16:24;;;;;;;12.88;5.78;;;;;;;9.75;83.68;101712.88;5056142;28;20029;-48
2022/09/23 00:18:50;;;;;;;8.23;4.90;;;;;;;9.71;82.57;101715.78;5056159;28;20051;-46
2022/09/23 00:21:16;;;;;;;8.45;5.10;;;;;;;9.74;84.10;101718.28;5055019;28;20034;-47
2022/09/23 00:23:42;;;;;;;12.02;5.47;;;;;;;9.70;84.14;101717.59;5054186;28;20057;-49
2022/09/23 00:26:10;;;;;;;13.00;5.68;;;;;;;9.68;84.23;101713.34;5055159;28;20049;-48
2022/09/23 00:28:35;;;;;;;10.13;6.18;;;;;;;9.66;84.14;101708.13;5056497;28;20037;-46
2022/09/23 00:31:03;;;;;;;11.95;5.65;;;;;;;9.65;83.92;101706.41;5054966;28;20064;-45
2022/09/23 00:33:28;;;;;;;8.38;5.40;;;;;;;9.64;83.38;101707.34;5053048;28;20059;-46
2022/09/23 00:35:58;;;;;;;9.98;5.60;;;;;;;9.61;83.37;101700.44;5055276;28;20033;-46
2022/09/23 00:38:23;;;;;;;7.88;4.50;;;;;;;9.60;84.21;101698.72;5054980;28;20018;-46
2022/09/23 00:40:49;;;;;;;8.73;4.95;;;;;;;9.60;84.28;101703.19;5055427;28;20246;-46
2022/09/23 00:43:14;;;;;;;9.10;5.10;;;;;;;9.55;84.52;101695.47;5054859;28;20085;-46
2022/09/23 00:45:44;;;;;;;8.68;6.13;;;;;;;9.52;84.25;101692.16;5055706;28;20033;-47
2022/09/23 00:48:15;;;;;;;8.60;5.25;;;;;;;9.47;84.15;101684.47;5055020;28;20009;-46
2022/09/23 00:53:14;;;;;;;15.20;6.07;;;;;;;9.44;84.34;101685.53;5078187;23;20080;-79
2022/09/23 00:55:47;;;;;;;13.88;6.50;;;;;;;9.40;83.96;101685.78;5035701;28;20030;-79
2022/09/23 00:58:16;;;;;;;11.85;6.88;;;;;;;9.37;84.30;101686.78;5031881;28;20054;-79
2022/09/23 01:00:42;;;;;;;10.85;7.05;;;;;;;9.38;84.07;101685.88;5028522;28;20014;-79
2022/09/23 01:03:09;;;;;;;12.20;7.10;;;;;;;9.37;84.69;101686.78;5031002;28;21075;-79
2022/09/23 01:05:35;;;;;;;11.40;7.53;;;;;;;9.39;84.32;101684.06;5034948;28;20041;-79
2022/09/23 01:08:03;;;;;;;13.82;7.85;;;;;;;9.37;84.60;101680.66;5035387;28;20037;-79
2022/09/23 01:11:13;;;;;;;13.23;7.68;;;;;;;9.37;84.15;101691.25;5035219;28;20040;-79
2022/09/23 01:13:58;;;;;;;13.85;7.20;;;;;;;9.33;84.40;101679.13;5034179;28;20021;-79
2022/09/23 01:16:36;;;;;;;14.25;8.05;;;;;;;9.34;84.44;101684.34;5036695;28;20036;-79
2022/09/23 01:19:07;;;;;;;10.13;7.68;;;;;;;9.31;84.38;101683.66;5045295;28;20025;-79
2022/09/23 01:21:38;;;;;;;16.88;8.45;;;;;;;9.26;84.40;101679.47;5035440;28;20040;-79
2022/09/23 01:24:43;;;;;;;12.50;8.80;;;;;;;9.28;83.42;101676.75;5034695;28;20029;-79
2022/09/23 01:27:30;;;;;;;14.25;9.00;;;;;;;9.18;84.15;101681.72;5030898;28;20026;-79
2022/09/23 01:30:15;;;;;;;13.50;9.07;;;;;;;9.18;83.44;101681.72;5027665;28;20104;-79
2022/09/23 01:32:41;;;;;;;10.80;8.75;;;;;;;9.19;83.54;101672.84;5033639;28;20033;-79
2022/09/23 01:35:33;;;;;;;16.30;9.60;;;;;;;9.16;84.22;101673.00;5034426;28;20018;-79
2022/09/23 01:38:13;;;;;;;14.98;9.15;;;;;;;9.13;83.48;101673.19;5034742;28;20037;-79
2022/09/23 01:41:04;;;;;;;13.95;9.43;;;;;;;9.14;83.16;101674.03;5025101;28;20101;-79
2022/09/23 01:43:47;;;;;;;13.48;8.60;;;;;;;9.11;83.91;101668.88;5031598;28;20032;-79
2022/09/23 01:46:19;;;;;;;13.95;9.45;;;;;;;9.06;84.06;101663.88;5018442;28;20132;-79
2022/09/23 01:48:57;;;;;;;9.77;8.77;;;;;;;9.05;83.65;101665.66;5022339;28;20524;-79
2022/09/23 01:51:34;;;;;;;12.88;8.93;;;;;;;9.01;84.25;101657.97;5032908;28;20107;-79
2022/09/23 01:54:04;;;;;;;12.88;8.75;;;;;;;9.02;83.91;101664.97;5012805;28;20097;-79
2022/09/23 01:56:38;;;;;;;14.55;9.82;;;;;;;9.02;84.17;101664.97;5025672;28;20492;-79
2022/09/23 01:59:29;;;;;;;15.80;10.35;;;;;;;9.05;84.08;101665.66;5015379;28;20029;-79
2022/09/23 02:02:03;;;;;;;10.95;9.07;;;;;;;9.02;84.26;101664.97;5014382;28;20050;-79
2022/09/23 02:04:38;;;;;;;14.63;10.02;;;;;;;9.01;84.51;101664.13;5015323;28;20062;-79
2022/09/23 02:07:34;;;;;;;14.35;9.70;;;;;;;9.05;84.40;101672.75;5015821;28;20432;-79
2022/09/23 02:10:26;;;;;;;14.88;10.70;;;;;;;9.04;84.30;101661.31;5021792;28;20053;-78
2022/09/23 02:12:56;;;;;;;11.82;10.27;;;;;;;8.98;84.59;101653.69;5021325;28;20049;-79
2022/09/23 02:15:34;;;;;;;16.75;10.02;;;;;;;9.01;85.05;101663.25;5018857;28;20022;-79
2022/09/23 02:18:04;;;;;;;12.55;9.90;;;;;;;9.00;84.86;101653.63;5026017;28;20029;-79
2022/09/23 02:20:33;;;;;;;13.88;11.02;;;;;;;8.99;85.13;101649.25;5016878;28;20478;-79
2022/09/23 02:23:11;;;;;;;14.43;10.45;;;;;;;9.01;85.03;101642.94;5030177;28;20064;-79
2022/09/23 02:25:58;;;;;;;15.43;12.02;;;;;;;9.01;84.56;101644.72;5019277;28;20080;-79
2022/09/23 02:28:48;;;;;;;15.90;10.65;;;;;;;9.00;84.69;101646.50;5026646;28;20037;-79
2022/09/23 02:31:22;;;;;;;13.15;10.98;;;;;;;9.01;85.11;101644.72;5019830;28;20029;-79
2022/09/23 02:34:12;;;;;;;16.92;11.18;;;;;;;9.00;85.01;101638.56;5006713;28;20088;-79
2022/09/23 02:36:49;;;;;;;14.13;10.02;;;;;;;9.01;85.00;101637.63;5018528;28;20026;-79
2022/09/23 02:39:17;;;;;;;13.73;11.05;;;;;;;8.98;85.25;101635.16;5017202;28;20023;-79
2022/09/23 02:41:52;;;;;;;14.68;10.73;;;;;;;9.00;84.94;101627.13;5027389;28;20401;-80
2022/09/23 02:44:19;;;;;;;12.93;10.43;;;;;;;8.97;84.87;101627.28;5023710;28;20026;-79
2022/09/23 02:46:45;;;;;;;14.25;11.13;;;;;;;8.96;85.26;101622.91;5020291;28;20022;-79
2022/09/23 02:49:16;;;;;;;14.43;10.75;;;;;;;8.91;85.39;101622.34;5020218;28;20030;-79
2022/09/23 02:51:42;;;;;;;14.60;11.25;;;;;;;8.87;85.36;101614.56;5030446;28;20057;-79
2022/09/23 02:54:13;;;;;;;14.48;11.35;;;;;;;8.89;84.99;101619.78;5031522;28;20033;-79
2022/09/23 02:56:39;;;;;;;14.32;11.07;;;;;;;8.87;85.10;101619.84;5023479;28;20325;-79
2022/09/23 02:59:06;;;;;;;15.90;10.85;;;;;;;8.88;85.17;101610.13;5022819;28;20440;-79
2022/09/23 03:01:34;;;;;;;18.70;11.45;;;;;;;8.86;85.23;101609.38;5023895;28;20034;-79
2022/09/23 03:04:05;;;;;;;16.42;10.85;;;;;;;8.86;85.17;101609.38;5028305;28;20121;-79
2022/09/23 03:06:51;;;;;;;14.43;10.20;;;;;;;8.83;84.79;101607.75;5011178;28;20026;-79
2022/09/23 03:09:26;;;;;;;15.05;10.93;;;;;;;8.81;84.78;101608.75;5018182;28;20034;-79
2022/09/23 03:12:02;;;;;;;14.32;10.57;;;;;;;8.81;84.74;101606.97;5024027;28;20039;-79
2022/09/23 03:15:00;;;;;;;14.27;10.10;;;;;;;8.80;83.77;101612.38;5016998;28;20493;-79
2022/09/23 03:17:33;;;;;;;17.80;10.30;;;;;;;8.77;84.27;101602.78;5015824;28;20447;-80
2022/09/23 03:20:06;;;;;;;14.05;11.20;;;;;;;8.74;84.16;101594.16;5017418;28;20033;-80
2022/09/23 03:22:41;;;;;;;12.90;9.80;;;;;;;8.73;84.26;101593.31;5018368;28;20472;-79
2022/09/23 03:25:12;;;;;;;12.32;9.38;;;;;;;8.73;85.00;101597.75;5006893;28;20605;-79
2022/09/23 03:27:41;;;;;;;10.40;9.30;;;;;;;8.71;84.70;101597.84;5018133;28;20075;-79
2022/09/23 03:30:07;;;;;;;16.42;10.50;;;;;;;8.69;84.63;101595.28;5016976;28;20034;-79
2022/09/23 03:32:35;;;;;;;15.43;10.93;;;;;;;8.65;84.68;101595.56;5018464;28;20029;-79
2022/09/23 03:35:03;;;;;;;13.18;10.35;;;;;;;8.57;84.52;101590.66;5015807;28;20477;-79
2022/09/23 03:37:45;;;;;;;12.25;10.18;;;;;;;8.61;84.92;101601.94;5016376;28;20037;-79
2022/09/23 03:40:16;;;;;;;16.35;10.40;;;;;;;8.59;85.49;101598.53;5020913;28;20063;-79
2022/09/23 03:42:41;;;;;;;14.00;10.23;;;;;;;8.59;85.22;101603.81;5022599;28;20030;-79
2022/09/23 03:45:12;;;;;;;13.25;10.50;;;;;;;8.58;85.33;101597.69;5017012;28;20374;-79
2022/09/23 03:47:38;;;;;;;11.77;9.77;;;;;;;8.55;84.68;101595.22;5016950;28;20040;-79
2022/09/23 03:50:04;;;;;;;12.70;10.13;;;;;;;8.52;85.41;101593.56;5010467;28;20442;-79
2022/09/23 03:52:30;;;;;;;12.38;10.02;;;;;;;8.47;85.71;101589.47;5025954;28;20065;-79
2022/09/23 03:54:55;;;;;;;15.00;10.57;;;;;;;8.44;84.74;101587.00;5020209;28;20049;-79
2022/09/23 03:57:21;;;;;;;15.25;9.25;;;;;;;8.44;85.50;101590.53;5026577;28;20037;-79
2022/09/23 03:59:49;;;;;;;11.75;9.82;;;;;;;8.42;85.66;101586.22;5019020;28;20033;-79
2022/09/23 04:02:15;;;;;;;11.80;9.98;;;;;;;8.39;84.87;101584.56;5022967;28;20017;-79
2022/09/23 04:04:41;;;;;;;14.55;9.52;;;;;;;8.40;85.73;101585.44;5018051;28;20026;-79
2022/09/23 04:07:06;;;;;;;12.95;9.50;;;;;;;8.39;85.76;101583.72;5017731;28;20030;-79
2022/09/23 04:09:31;;;;;;;12.73;10.15;;;;;;;8.39;85.84;101583.72;5016866;28;20378;-79
2022/09/23 04:11:57;;;;;;;14.18;9.70;;;;;;;8.37;85.63;101582.97;5025789;28;20524;-79
2022/09/23 04:14:22;;;;;;;10.63;9.38;;;;;;;8.37;85.58;101575.03;5019615;28;20444;-79
2022/09/23 04:16:49;;;;;;;11.43;9.27;;;;;;;8.34;85.36;101579.56;5009354;28;20026;-79
2022/09/23 04:19:14;;;;;;;10.68;9.23;;;;;;;8.32;85.53;101576.13;5012376;28;20526;-79
2022/09/23 04:21:42;;;;;;;10.90;9.75;;;;;;;8.31;85.22;101584.13;5012808;28;20030;-79
2022/09/23 04:24:08;;;;;;;12.52;10.00;;;;;;;8.30;85.87;101585.94;5012611;28;20029;-79
2022/09/23 04:26:34;;;;;;;11.23;9.35;;;;;;;8.25;85.77;101582.69;5018225;28;20053;-79
2022/09/23 04:28:59;;;;;;;14.98;9.48;;;;;;;8.24;85.37;101583.63;5013312;28;20357;-79
2022/09/23 04:31:25;;;;;;;13.73;8.73;;;;;;;8.23;85.72;101578.44;5017973;28;20033;-79
2022/09/23 04:33:54;;;;;;;10.75;9.60;;;;;;;8.22;85.53;101582.03;5019585;28;20026;-79
2022/09/23 04:36:19;;;;;;;12.45;9.77;;;;;;;8.23;85.78;101581.94;5022145;28;20314;-78
2022/09/23 04:38:46;;;;;;;13.00;9.25;;;;;;;8.21;86.17;101578.53;5021627;28;20083;-78
2022/09/23 04:41:12;;;;;;;12.48;10.40;;;;;;;8.19;85.93;101572.44;5018392;28;20049;-78
2022/09/23 04:43:37;;;;;;;14.00;9.48;;;;;;;8.19;85.66;101575.09;5005579;28;20021;-78
2022/09/23 04:46:05;;;;;;;11.80;8.85;;;;;;;8.13;85.68;101568.34;5013623;28;20030;-79
2022/09/23 04:48:31;;;;;;;13.07;9.35;;;;;;;8.17;86.01;101579.63;5014012;28;20030;-79
2022/09/23 04:51:04;;;;;;;11.45;9.98;;;;;;;8.13;86.08;101564.84;5015020;28;20040;-79
2022/09/23 04:53:30;;;;;;;11.77;9.43;;;;;;;8.15;86.25;101565.63;5016187;28;20037;-79
2022/09/23 04:56:26;;;;;;;13.40;9.57;;;;;;;8.18;85.32;101568.09;5017109;28;20200;-78
2022/09/23 04:58:52;;;;;;;12.52;9.57;;;;;;;8.13;85.73;101565.72;5009141;28;20085;-78
2022/09/23 05:01:25;;;;;;;13.82;9.40;;;;;;;8.12;86.34;101561.34;5016350;28;20038;-78
2022/09/23 05:03:53;;;;;;;10.82;9.15;;;;;;;8.13;86.41;101551.63;5017188;28;20565;-78
2022/09/23 05:06:19;;;;;;;10.63;9.27;;;;;;;8.12;86.16;101553.41;5011431;28;20031;-78
2022/09/23 05:08:53;;;;;;;11.30;9.18;;;;;;;8.13;86.14;101564.84;5022153;28;20037;-78
2022/09/23 05:11:20;;;;;;;9.85;8.85;;;;;;;8.13;86.30;101560.41;5033093;28;20044;-78
2022/09/23 05:13:49;;;;;;;11.73;9.10;;;;;;;8.11;86.49;101564.06;5017742;28;20032;-78
2022/09/23 05:16:17;;;;;;;12.30;8.80;;;;;;;8.11;87.17;101564.06;5015943;28;20447;-78
2022/09/23 05:18:44;;;;;;;11.93;9.05;;;;;;;8.14;87.47;101563.91;5015100;28;20030;-78
2022/09/23 05:21:11;;;;;;;11.07;9.27;;;;;;;8.12;86.55;101557.84;5017064;28;20022;-78
2022/09/23 05:23:36;;;;;;;13.38;8.85;;;;;;;8.12;87.05;101568.44;5016343;28;20500;-78
2022/09/23 05:26:05;;;;;;;12.43;8.43;;;;;;;8.09;86.77;101572.13;5014347;28;20026;-78
2022/09/23 05:28:31;;;;;;;14.20;8.20;;;;;;;8.13;87.20;101572.81;5026766;28;20029;-78
2022/09/23 05:31:18;;;;;;;11.68;8.63;;;;;;;8.13;86.87;101567.50;5012056;28;20040;-78
2022/09/23 05:33:45;;;;;;;15.82;9.00;;;;;;;8.13;87.33;101572.81;5020142;28;20022;-78
2022/09/23 05:36:12;;;;;;;9.70;8.30;;;;;;;8.12;87.37;101571.94;5009946;28;20132;-78
2022/09/23 05:38:38;;;;;;;10.02;7.95;;;;;;;8.13;86.94;101584.22;5017872;28;20029;-78
2022/09/23 05:41:06;;;;;;;12.55;8.15;;;;;;;8.11;87.56;101577.28;5005793;28;20019;-79
2022/09/23 05:43:32;;;;;;;10.93;8.30;;;;;;;8.15;87.50;101579.69;5021705;28;20148;-79
2022/09/23 05:46:13;;;;;;;9.27;7.85;;;;;;;8.17;87.02;101571.69;5027218;28;20038;-79
2022/09/23 05:48:39;;;;;;;9.02;7.90;;;;;;;8.14;87.34;101574.50;5026553;28;20036;-79
2022/09/23 05:51:09;;;;;;;10.05;8.23;;;;;;;8.18;87.26;101583.97;5030508;28;20096;-80
2022/09/23 05:53:35;;;;;;;11.98;8.32;;;;;;;8.19;87.41;101585.66;5018158;28;20392;-79
2022/09/23 05:56:06;;;;;;;10.73;8.02;;;;;;;8.20;86.72;101592.69;5022390;28;20022;-80
2022/09/23 05:58:32;;;;;;;13.25;9.27;;;;;;;8.19;87.78;101580.38;5013035;28;20485;-80
2022/09/23 06:00:57;;;;;;;12.50;9.18;;;;;;;8.25;87.97;101588.00;5013267;28;20034;-80
2022/09/23 06:03:24;;;;;;;13.55;8.73;;;;;;;8.26;87.76;101586.19;5004058;28;20035;-80
2022/09/23 06:05:53;;;;;;;13.07;8.10;;;;;;;8.30;87.19;101585.09;5014624;28;20615;-78
2022/09/23 06:08:19;;;;;;;12.95;9.00;;;;;;;8.33;87.14;101583.13;5022822;28;20660;-80
2022/09/23 06:10:47;;;;;;;13.55;8.85;;;;;;;8.36;87.28;101578.59;5014869;28;20137;-78
2022/09/23 06:13:12;;;;;;;10.57;9.15;;;;;;;8.38;87.16;101579.41;4997646;28;20124;-78
2022/09/23 06:15:38;;;;;;;19.52;9.77;;;;;;;8.41;87.92;101587.13;5011096;28;20205;-78
2022/09/23 06:18:05;;;;;;;11.32;8.82;;;;;;;8.44;87.24;101576.41;5019070;28;20037;-78
2022/09/23 06:20:31;;;;;;;12.25;9.07;;;;;;;8.47;87.11;101576.25;5008822;28;20038;-78
2022/09/23 06:23:04;;;;;;;14.43;9.80;;;;;;;8.53;87.44;101578.56;5020329;28;20041;-78
2022/09/23 06:25:31;;;;;;;12.88;9.80;;;;;;;8.56;87.00;101564.28;5010701;28;20050;-78
2022/09/23 06:27:57;;;;;;;13.10;9.57;;;;;;;8.59;86.85;101572.91;5014618;28;20028;-78
2022/09/23 06:30:25;;;;;;;14.52;10.35;;;;;;;8.64;87.15;101572.63;5013342;28;20053;-78
2022/09/23 06:32:52;;;;;;;13.32;9.00;;;;;;;8.68;87.74;101572.38;5017256;28;20025;-78
2022/09/23 06:35:24;;;;;;;12.68;8.95;;;;;;;8.70;87.71;101559.91;5009592;28;20052;-79
2022/09/23 06:37:53;;;;;;;13.65;9.02;;;;;;;8.79;87.25;101573.56;5017616;28;20065;-79
2022/09/23 06:40:19;;;;;;;13.15;8.95;;;;;;;8.84;87.02;101568.84;5016116;28;20108;-79
2022/09/23 06:42:44;;;;;;;14.85;9.25;;;;;;;8.86;86.68;101573.13;5014645;28;20469;-79
2022/09/23 06:45:13;;;;;;;12.23;8.43;;;;;;;8.93;86.44;101572.78;5014599;28;20052;-79
2022/09/23 06:47:39;;;;;;;13.15;9.20;;;;;;;8.97;86.48;101576.94;5012377;28;20084;-79
2022/09/23 06:50:05;;;;;;;11.80;8.30;;;;;;;9.02;86.59;101574.88;5010426;28;20041;-79
2022/09/23 06:52:30;;;;;;;12.35;9.07;;;;;;;9.07;86.44;101578.97;5011696;28;20081;-79
2022/09/23 06:54:56;;;;;;;15.25;9.98;;;;;;;9.12;85.67;101570.75;5015611;28;20022;-78
2022/09/23 06:57:21;;;;;;;16.02;9.43;;;;;;;9.17;86.33;101566.03;5018750;28;20040;-78
2022/09/23 06:59:47;;;;;;;12.45;8.63;;;;;;;9.22;86.19;101569.25;5014320;28;20037;-78
2022/09/23 07:02:13;;;;;;;15.25;9.75;;;;;;;9.26;86.45;101567.31;5021401;28;20435;-79
2022/09/23 07:04:38;;;;;;;13.02;9.60;;;;;;;9.32;86.24;101572.22;5011521;28;20034;-79
2022/09/23 07:07:04;;;;;;;13.32;9.02;;;;;;;9.38;86.35;101571.00;5017113;28;20046;-79
2022/09/23 07:09:29;;;;;;;13.18;8.38;;;;;;;9.43;85.99;101567.13;5013607;28;20033;-78
2022/09/23 07:11:54;;;;;;;11.45;9.40;;;;;;;9.46;86.08;101558.16;5017122;28;20442;-78
2022/09/23 07:14:21;;;;;;;13.65;9.35;;;;;;;9.54;85.82;101562.97;5013276;28;20034;-79
2022/09/23 07:16:49;;;;;;;12.50;8.95;;;;;;;9.61;85.51;101565.16;5014346;28;20133;-78
2022/09/23 07:19:14;;;;;;;14.65;9.02;;;;;;;9.70;85.28;101561.09;5016083;28;20065;-79
2022/09/23 07:21:40;;;;;;;18.02;8.98;;;;;;;9.76;85.38;101560.72;5021003;28;20609;-79
2022/09/23 07:24:06;;;;;;;11.50;8.60;;;;;;;9.85;85.39;101574.38;5015945;28;20047;-79
2022/09/23 07:26:32;;;;;;;14.88;8.80;;;;;;;9.93;85.15;101561.47;5026282;28;20029;-80
2022/09/23 07:29:03;;;;;;;11.55;8.95;;;;;;;10.00;84.56;101565.44;5016339;28;20422;-80
2022/09/23 07:31:29;;;;;;;11.80;8.95;;;;;;;10.11;85.06;101568.28;5027218;28;20018;-79
2022/09/23 07:33:56;;;;;;;14.95;9.52;;;;;;;10.17;84.55;101567.03;5016404;28;20071;-80
2022/09/23 07:36:22;;;;;;;13.38;8.60;;;;;;;10.27;84.02;101565.50;5018260;28;20025;-77
2022/09/23 07:38:48;;;;;;;11.50;8.70;;;;;;;10.36;85.47;101558.78;5017386;28;20017;-78
2022/09/23 07:41:16;;;;;;;10.75;8.63;;;;;;;10.44;83.31;101574.22;5021381;28;20029;-78
2022/09/23 07:43:43;;;;;;;11.98;9.10;;;;;;;10.54;83.89;101568.22;5017514;28;20018;-78
2022/09/23 07:46:15;;;;;;;13.27;9.02;;;;;;;10.65;83.98;101558.69;5023237;28;20029;-78
2022/09/23 07:48:41;;;;;;;13.75;8.50;;;;;;;10.75;83.25;101559.78;5036114;28;20025;-78
2022/09/23 07:51:19;;;;;;;13.88;8.73;;;;;;;10.88;82.67;101559.84;5024121;28;20447;-78
2022/09/23 07:53:49;;;;;;;16.02;8.95;;;;;;;11.01;81.47;101557.22;5013796;28;20033;-79
2022/09/23 07:56:16;;;;;;;13.27;9.38;;;;;;;11.13;82.12;101560.88;5017637;28;20026;-78
2022/09/23 07:58:41;;;;;;;13.15;8.07;;;;;;;11.26;80.01;101559.06;5015621;28;20033;-79
2022/09/23 08:01:09;;;;;;;10.88;8.68;;;;;;;11.37;81.40;101561.81;5016374;28;20045;-78
2022/09/23 08:03:35;;;;;;;14.93;8.73;;;;;;;11.49;81.79;101565.47;5021131;28;20037;-79
2022/09/23 08:06:09;;;;;;;14.10;8.80;;;;;;;11.63;81.64;101572.50;5028805;28;20021;-79
2022/09/23 08:08:38;;;;;;;13.98;8.80;;;;;;;11.74;81.85;101574.41;5017577;28;20045;-79
2022/09/23 08:11:06;;;;;;;14.50;8.13;;;;;;;11.84;80.13;101572.81;5019857;28;20061;-79
2022/09/23 08:13:32;;;;;;;14.40;8.45;;;;;;;11.92;80.51;101566.97;5027471;28;20555;-79
2022/09/23 08:15:58;;;;;;;12.80;8.02;;;;;;;12.04;80.62;101574.09;5024279;28;20088;-79
2022/09/23 08:18:24;;;;;;;11.43;8.57;;;;;;;12.09;79.44;101568.44;5025540;28;20041;-79
2022/09/23 08:20:49;;;;;;;12.68;7.72;;;;;;;12.21;80.49;101563.06;5014344;28;20028;-79
2022/09/23 08:23:16;;;;;;;10.95;7.53;;;;;;;12.34;80.04;101565.72;5014868;28;20181;-79
2022/09/23 08:25:45;;;;;;;14.95;8.35;;;;;;;12.44;78.35;101573.03;5021218;28;20046;-79
2022/09/23 08:28:13;;;;;;;12.55;8.27;;;;;;;12.55;77.66;101563.28;5022709;28;20132;-79
2022/09/23 08:30:38;;;;;;;12.70;7.25;;;;;;;12.66;77.62;101573.16;5018956;28;20026;-79
2022/09/23 08:33:03;;;;;;;15.93;8.05;;;;;;;12.79;76.86;101573.13;5012947;28;20026;-80
2022/09/23 08:35:31;;;;;;;13.25;8.00;;;;;;;12.90;76.98;101567.81;5013899;28;20433;-79
2022/09/23 08:37:56;;;;;;;11.00;7.93;;;;;;;13.00;75.52;101573.31;5014257;28;20060;-79
2022/09/23 08:40:22;;;;;;;10.82;6.97;;;;;;;13.13;76.45;101571.41;5015794;28;20025;-79
2022/09/23 08:42:48;;;;;;;11.60;7.07;;;;;;;13.23;76.39;101565.38;5015190;28;20083;-79
2022/09/23 08:45:22;;;;;;;8.85;6.53;;;;;;;13.33;75.48;101566.41;5015252;28;20026;-79
2022/09/23 08:48:00;;;;;;;13.35;6.90;;;;;;;13.37;73.46;101551.00;5002562;28;20022;-79
2022/09/23 08:50:32;;;;;;;9.77;6.83;;;;;;;13.57;72.08;101565.47;5017788;28;20127;-80
2022/09/23 08:53:06;;;;;;;9.95;6.47;;;;;;;13.65;72.39;101563.06;5019506;28;20054;-79
2022/09/23 08:55:59;;;;;;;12.18;6.90;;;;;;;13.76;72.64;101564.91;5020190;28;20030;-80
2022/09/23 08:58:40;;;;;;;8.57;6.03;;;;;;;13.95;73.57;101567.78;5021721;28;20041;-79
2022/09/23 09:01:43;;;;;;;10.88;6.82;;;;;;;14.09;73.02;101560.50;5012479;28;20384;-80
2022/09/23 09:04:21;;;;;;;10.38;6.40;;;;;;;14.25;70.28;101560.97;5026383;28;20026;-80
2022/09/23 09:07:05;;;;;;;9.60;6.20;;;;;;;14.41;71.16;101557.91;5014587;28;20048;-80
2022/09/23 09:10:11;;;;;;;9.00;5.95;;;;;;;14.56;70.19;101558.50;5017250;28;20104;-79
2022/09/23 09:12:49;;;;;;;8.55;5.78;;;;;;;14.72;70.15;101547.38;5007903;28;20046;-79
2022/09/23 09:15:19;;;;;;;10.15;6.38;;;;;;;14.84;68.52;101548.19;5015259;28;20438;-80
2022/09/23 09:18:11;;;;;;;8.55;5.75;;;;;;;14.99;69.93;101550.44;5014986;28;20030;-79
2022/09/23 09:21:07;;;;;;;9.27;5.60;;;;;;;15.17;68.58;101547.16;5012200;28;20524;-79
2022/09/23 09:23:36;;;;;;;9.63;5.60;;;;;;;15.29;66.62;101545.31;5027005;28;20026;-79
2022/09/23 09:26:02;;;;;;;11.77;6.20;;;;;;;15.41;66.66;101551.44;5005658;28;20049;-78
2022/09/23 09:28:34;;;;;;;13.10;6.28;;;;;;;15.52;65.05;101540.63;5008307;28;20044;-80
2022/09/23 09:31:04;;;;;;;7.72;5.43;;;;;;;15.61;66.11;101544.34;5017189;28;20030;-80
2022/09/23 09:33:43;;;;;;;8.50;5.35;;;;;;;15.73;66.82;101541.44;5028318;28;20453;-81
2022/09/23 09:36:46;;;;;;;9.05;4.38;;;;;;;15.90;65.59;101539.13;5021102;28;20017;-81
2022/09/23 09:39:13;;;;;;;8.60;4.85;;;;;;;16.13;63.86;101541.63;5015448;28;20022;-81
2022/09/23 09:41:43;;;;;;;9.68;5.40;;;;;;;16.19;64.78;101543.75;5021558;28;20032;-81
2022/09/23 09:44:43;;;;;;;7.22;5.50;;;;;;;16.38;64.44;101535.75;5024144;28;20073;-81
2022/09/23 09:47:34;;;;;;;10.63;5.20;;;;;;;16.60;65.14;101536.47;5003415;28;20111;-81
2022/09/23 09:50:42;;;;;;;10.25;5.18;;;;;;;16.81;63.46;101533.66;5014627;28;20469;-82
2022/09/23 09:53:34;;;;;;;7.63;4.50;;;;;;;17.00;62.75;101535.50;5013715;28;20477;-82
2022/09/23 09:56:06;;;;;;;9.82;4.75;;;;;;;17.13;60.05;101532.53;5010404;28;20050;-81
2022/09/23 09:58:40;;;;;;;7.35;4.80;;;;;;;17.20;59.09;101530.97;5010102;28;20030;-81
2022/09/23 10:01:06;;;;;;;6.32;4.75;;;;;;;17.32;59.35;101520.91;5011954;28;20060;-81
2022/09/23 10:03:38;;;;;;;6.15;4.00;;;;;;;17.38;57.71;101525.69;5012129;28;20022;-81
2022/09/23 10:06:19;;;;;;;5.60;4.13;;;;;;;17.55;59.39;101527.63;5011328;28;20042;-81
2022/09/23 10:09:16;;;;;;;12.65;4.93;;;;;;;17.65;58.98;101524.91;5008572;28;20030;-81
2022/09/23 10:12:00;;;;;;;9.20;4.25;;;;;;;17.71;56.17;101518.94;5009067;28;20192;-81
2022/09/23 10:14:28;;;;;;;6.28;4.47;;;;;;;17.79;56.32;101515.53;4992105;28;20466;-81
2022/09/23 10:17:04;;;;;;;7.32;4.20;;;;;;;17.89;57.52;101515.50;5026965;28;20065;-81
2022/09/23 10:19:30;;;;;;;7.82;4.65;;;;;;;17.94;55.72;101508.69;5031298;28;20473;-81
2022/09/23 10:21:59;;;;;;;7.35;4.93;;;;;;;18.02;55.68;101513.31;5023500;28;20431;-79
2022/09/23 10:24:29;;;;;;;7.15;4.82;;;;;;;18.15;57.01;101512.09;5013226;28;20033;-79
2022/09/23 10:27:10;;;;;;;9.50;4.65;;;;;;;18.29;57.74;101506.22;5006494;28;20480;-80
2022/09/23 10:29:38;;;;;;;10.35;5.40;;;;;;;18.29;54.95;101509.75;5017080;28;20041;-80
2022/09/23 10:32:19;;;;;;;9.88;4.70;;;;;;;18.44;55.80;101514.59;5016555;28;20048;-79
2022/09/23 10:34:50;;;;;;;6.97;4.68;;;;;;;18.43;54.61;101510.22;5012653;28;20100;-80
2022/09/23 10:37:22;;;;;;;8.18;4.18;;;;;;;18.31;54.35;101507.75;5006477;28;20042;-79
2022/09/23 10:48:56;;;;;;;8.35;4.78;;;;;;;18.64;55.69;101510.75;5015755;28;20369;-79
2022/09/23 10:51:34;;;;;;;11.25;4.10;;;;;;;18.68;56.50;101511.28;5015304;28;20029;-79
2022/09/23 10:54:30;;;;;;;4.72;4.00;;;;;;;18.74;54.81;101508.00;5006058;28;20101;-79
2022/09/23 10:57:39;;;;;;;7.50;4.47;;;;;;;18.83;56.06;101504.38;5022067;28;20045;-78
2022/09/23 11:00:13;;;;;;;11.65;6.50;;;;;;;18.82;53.55;101504.53;4984749;28;20496;-78
2022/09/23 11:03:00;;;;;;;11.55;6.10;;;;;;;18.85;53.41;101505.09;5016717;28;20137;-79
2022/09/23 11:05:39;;;;;;;8.75;5.80;;;;;;;18.88;52.34;101498.53;5011467;28;20053;-79
2022/09/23 11:08:31;;;;;;;10.00;6.18;;;;;;;18.83;50.99;101500.84;5012088;28;20042;-79
2022/09/23 11:11:02;;;;;;;9.15;5.82;;;;;;;18.95;52.02;101502.31;5013898;28;20050;-79
2022/09/23 11:13:41;;;;;;;12.50;6.05;;;;;;;18.94;53.79;101499.78;5012077;28;20409;-79
2022/09/23 11:16:15;;;;;;;8.82;5.40;;;;;;;18.97;52.82;101497.63;5014771;28;20069;-79
2022/09/23 11:18:52;;;;;;;9.05;5.35;;;;;;;18.96;53.40;101495.91;5018944;28;20054;-80
2022/09/23 11:21:43;;;;;;;8.95;5.38;;;;;;;19.08;53.93;101492.97;5014245;28;20049;-79
2022/09/23 11:24:46;;;;;;;7.15;4.97;;;;;;;19.11;54.96;101488.09;5011693;28;20056;-79
2022/09/23 11:27:42;;;;;;;8.68;5.50;;;;;;;19.16;53.91;101493.88;5018258;28;20053;-79
2022/09/23 11:30:12;;;;;;;10.10;5.28;;;;;;;19.13;50.70;101491.47;5012427;28;20026;-79
2022/09/23 11:33:01;;;;;;;11.70;5.75;;;;;;;19.21;53.11;101488.84;5017392;28;20099;-79
2022/09/23 11:35:40;;;;;;;11.55;4.70;;;;;;;19.20;52.93;101494.38;5017285;28;20058;-79
2022/09/23 11:38:24;;;;;;;7.38;4.70;;;;;;;19.23;52.50;101481.47;5011804;28;20052;-79
2022/09/23 11:40:55;;;;;;;6.68;4.18;;;;;;;19.18;48.63;101473.00;5016950;28;20099;-79
2022/09/23 11:43:32;;;;;;;7.53;4.28;;;;;;;19.15;49.59;101475.16;5015225;28;20040;-79
2022/09/23 11:46:05;;;;;;;10.80;3.85;;;;;;;19.11;51.08;101468.44;5014071;28;20143;-80
2022/09/23 11:48:56;;;;;;;6.57;3.70;;;;;;;19.26;52.27;101466.00;5013431;28;20105;-80
2022/09/23 11:51:30;;;;;;;5.47;3.03;;;;;;;19.20;49.79;101470.16;5013836;28;20037;-79
2022/09/23 11:54:01;;;;;;;7.78;3.22;;;;;;;19.18;48.75;101464.09;5013617;28;20026;-80
2022/09/23 11:56:32;;;;;;;4.93;2.65;;;;;;;19.30;48.54;101470.91;5015837;28;20026;-80
2022/09/23 11:59:14;;;;;;;6.05;3.15;;;;;;;19.34;48.05;101464.19;5019424;28;20413;-80